sensor_id;sensor_type;location;lat;lon;timestamp;P1;durP1;ratioP1;P2;durP2;ratioP2
5867;SDS011;2960;49.142;7.768;2023-03-01T00:01:07;8.77;;;2.77;;
5867;SDS011;2960;49.142;7.768;2023-03-01T00:03:38;7.87;;;2.43;;
5867;SDS011;2960;49.142;7.768;2023-03-01T00:06:12;8.83;;;2.60;;
5867;SDS011;2960;49.142;7.768;2023-03-01T00:08:40;9.03;;;2.70;;
5867;SDS011;2960;49.142;7.768;2023-03-01T00:11:10;8.20;;;2.63;;
5867;SDS011;2960;49.142;7.768;2023-03-01T00:13:42;9.27;;;3.13;;
5867;SDS011;2960;49.142;7.768;2023-03-01T00:16:12;8.27;;;2.83;;
5867;SDS011;2960;49.142;7.768;2023-03-01T00:18:42;9.33;;;2.60;;
5867;SDS011;2960;49.142;7.768;2023-03-01T00:21:09;9.40;;;2.90;;
5867;SDS011;2960;49.142;7.768;2023-03-01T00:23:37;8.13;;;2.47;;
5867;SDS011;2960;49.142;7.768;2023-03-01T00:26:05;8.73;;;2.60;;
5867;SDS011;2960;49.142;7.768;2023-03-01T00:28:34;9.07;;;2.70;;
5867;SDS011;2960;49.142;7.768;2023-03-01T00:31:02;8.90;;;2.80;;
5867;SDS011;2960;49.142;7.768;2023-03-01T00:33:32;9.77;;;2.50;;
5867;SDS011;2960;49.142;7.768;2023-03-01T00:35:59;9.67;;;2.90;;
5867;SDS011;2960;49.142;7.768;2023-03-01T00:38:27;9.10;;;2.53;;
5867;SDS011;2960;49.142;7.768;2023-03-01T00:40:55;10.23;;;2.57;;
5867;SDS011;2960;49.142;7.768;2023-03-01T00:43:22;9.17;;;2.43;;
5867;SDS011;2960;49.142;7.768;2023-03-01T00:45:49;10.23;;;2.60;;
5867;SDS011;2960;49.142;7.768;2023-03-01T00:48:16;9.00;;;2.67;;
5867;SDS011;2960;49.142;7.768;2023-03-01T00:50:45;9.23;;;2.73;;
5867;SDS011;2960;49.142;7.768;2023-03-01T00:53:12;8.70;;;2.67;;
5867;SDS011;2960;49.142;7.768;2023-03-01T00:55:42;8.87;;;2.60;;
5867;SDS011;2960;49.142;7.768;2023-03-01T00:58:09;8.10;;;2.30;;
5867;SDS011;2960;49.142;7.768;2023-03-01T01:00:39;8.37;;;2.50;;
5867;SDS011;2960;49.142;7.768;2023-03-01T01:03:06;8.37;;;2.23;;
5867;SDS011;2960;49.142;7.768;2023-03-01T01:05:34;8.20;;;2.40;;
5867;SDS011;2960;49.142;7.768;2023-03-01T01:08:02;9.13;;;2.33;;
5867;SDS011;2960;49.142;7.768;2023-03-01T01:10:29;10.17;;;2.80;;
5867;SDS011;2960;49.142;7.768;2023-03-01T01:12:57;8.33;;;2.67;;
5867;SDS011;2960;49.142;7.768;2023-03-01T01:15:26;9.53;;;2.73;;
5867;SDS011;2960;49.142;7.768;2023-03-01T01:17:54;7.60;;;2.27;;
5867;SDS011;2960;49.142;7.768;2023-03-01T01:20:21;9.00;;;2.50;;
5867;SDS011;2960;49.142;7.768;2023-03-01T01:22:48;8.53;;;2.73;;
5867;SDS011;2960;49.142;7.768;2023-03-01T01:25:18;8.20;;;2.30;;
5867;SDS011;2960;49.142;7.768;2023-03-01T01:27:45;7.77;;;2.40;;
5867;SDS011;2960;49.142;7.768;2023-03-01T01:30:12;8.50;;;2.50;;
5867;SDS011;2960;49.142;7.768;2023-03-01T01:32:40;7.73;;;2.37;;
5867;SDS011;2960;49.142;7.768;2023-03-01T01:35:07;9.50;;;2.23;;
5867;SDS011;2960;49.142;7.768;2023-03-01T01:37:34;9.70;;;2.40;;
5867;SDS011;2960;49.142;7.768;2023-03-01T01:40:02;8.50;;;2.50;;
5867;SDS011;2960;49.142;7.768;2023-03-01T01:42:32;7.60;;;2.10;;
5867;SDS011;2960;49.142;7.768;2023-03-01T01:45:24;8.37;;;2.60;;
5867;SDS011;2960;49.142;7.768;2023-03-01T01:47:57;7.90;;;2.23;;
5867;SDS011;2960;49.142;7.768;2023-03-01T01:50:31;9.07;;;2.27;;
5867;SDS011;2960;49.142;7.768;2023-03-01T01:53:05;8.57;;;2.50;;
5867;SDS011;2960;49.142;7.768;2023-03-01T01:55:36;7.83;;;2.30;;
5867;SDS011;2960;49.142;7.768;2023-03-01T01:58:09;8.20;;;2.57;;
5867;SDS011;2960;49.142;7.768;2023-03-01T02:00:40;9.97;;;2.40;;
5867;SDS011;2960;49.142;7.768;2023-03-01T02:03:10;8.83;;;2.17;;
5867;SDS011;2960;49.142;7.768;2023-03-01T02:05:43;9.30;;;2.47;;
5867;SDS011;2960;49.142;7.768;2023-03-01T02:08:16;8.90;;;2.70;;
5867;SDS011;2960;49.142;7.768;2023-03-01T02:10:46;8.80;;;2.50;;
5867;SDS011;2960;49.142;7.768;2023-03-01T02:13:18;8.33;;;2.50;;
5867;SDS011;2960;49.142;7.768;2023-03-01T02:15:45;8.00;;;2.63;;
5867;SDS011;2960;49.142;7.768;2023-03-01T02:18:13;7.80;;;2.20;;
5867;SDS011;2960;49.142;7.768;2023-03-01T02:20:47;8.60;;;2.60;;
5867;SDS011;2960;49.142;7.768;2023-03-01T02:23:31;9.87;;;2.30;;
5867;SDS011;2960;49.142;7.768;2023-03-01T02:26:04;7.50;;;2.30;;
5867;SDS011;2960;49.142;7.768;2023-03-01T02:28:38;7.30;;;2.20;;
5867;SDS011;2960;49.142;7.768;2023-03-01T02:31:07;9.23;;;2.40;;
5867;SDS011;2960;49.142;7.768;2023-03-01T02:33:53;8.43;;;2.40;;
5867;SDS011;2960;49.142;7.768;2023-03-01T02:36:21;8.03;;;2.43;;
5867;SDS011;2960;49.142;7.768;2023-03-01T02:38:54;8.27;;;2.53;;
5867;SDS011;2960;49.142;7.768;2023-03-01T02:41:24;9.33;;;2.43;;
5867;SDS011;2960;49.142;7.768;2023-03-01T02:43:56;7.80;;;2.30;;
5867;SDS011;2960;49.142;7.768;2023-03-01T02:46:25;8.33;;;2.67;;
5867;SDS011;2960;49.142;7.768;2023-03-01T02:48:53;8.17;;;2.33;;
5867;SDS011;2960;49.142;7.768;2023-03-01T02:51:25;8.03;;;2.43;;
5867;SDS011;2960;49.142;7.768;2023-03-01T02:54:10;8.00;;;2.40;;
5867;SDS011;2960;49.142;7.768;2023-03-01T02:56:46;9.33;;;2.00;;
5867;SDS011;2960;49.142;7.768;2023-03-01T02:59:15;8.00;;;2.30;;
5867;SDS011;2960;49.142;7.768;2023-03-01T03:01:45;8.53;;;2.57;;
5867;SDS011;2960;49.142;7.768;2023-03-01T03:04:13;8.50;;;2.53;;
5867;SDS011;2960;49.142;7.768;2023-03-01T03:06:44;8.23;;;2.50;;
5867;SDS011;2960;49.142;7.768;2023-03-01T03:09:12;7.43;;;2.00;;
5867;SDS011;2960;49.142;7.768;2023-03-01T03:11:41;8.53;;;2.60;;
5867;SDS011;2960;49.142;7.768;2023-03-01T03:14:09;9.90;;;2.63;;
5867;SDS011;2960;49.142;7.768;2023-03-01T03:16:41;10.00;;;2.73;;
5867;SDS011;2960;49.142;7.768;2023-03-01T03:19:09;8.60;;;2.90;;
5867;SDS011;2960;49.142;7.768;2023-03-01T03:21:37;8.10;;;2.40;;
5867;SDS011;2960;49.142;7.768;2023-03-01T03:24:04;9.10;;;2.30;;
5867;SDS011;2960;49.142;7.768;2023-03-01T03:26:35;11.20;;;2.90;;
5867;SDS011;2960;49.142;7.768;2023-03-01T03:29:02;8.20;;;2.60;;
5867;SDS011;2960;49.142;7.768;2023-03-01T03:31:29;9.83;;;2.80;;
5867;SDS011;2960;49.142;7.768;2023-03-01T03:33:58;8.77;;;2.77;;
5867;SDS011;2960;49.142;7.768;2023-03-01T03:36:25;7.50;;;2.13;;
5867;SDS011;2960;49.142;7.768;2023-03-01T03:38:55;8.60;;;2.80;;
5867;SDS011;2960;49.142;7.768;2023-03-01T03:41:22;7.07;;;2.10;;
5867;SDS011;2960;49.142;7.768;2023-03-01T03:43:49;9.30;;;2.83;;
5867;SDS011;2960;49.142;7.768;2023-03-01T03:46:16;7.70;;;2.30;;
5867;SDS011;2960;49.142;7.768;2023-03-01T03:48:44;9.00;;;2.80;;
5867;SDS011;2960;49.142;7.768;2023-03-01T03:51:14;9.33;;;2.40;;
5867;SDS011;2960;49.142;7.768;2023-03-01T03:53:43;9.33;;;2.40;;
5867;SDS011;2960;49.142;7.768;2023-03-01T03:56:11;8.50;;;2.67;;
5867;SDS011;2960;49.142;7.768;2023-03-01T03:58:38;8.00;;;2.53;;
5867;SDS011;2960;49.142;7.768;2023-03-01T04:01:08;7.73;;;2.23;;
5867;SDS011;2960;49.142;7.768;2023-03-01T04:03:35;8.87;;;2.80;;
5867;SDS011;2960;49.142;7.768;2023-03-01T04:06:02;8.93;;;2.50;;
5867;SDS011;2960;49.142;7.768;2023-03-01T04:08:32;7.73;;;2.33;;
5867;SDS011;2960;49.142;7.768;2023-03-01T04:11:00;9.13;;;2.70;;
5867;SDS011;2960;49.142;7.768;2023-03-01T04:13:49;9.70;;;2.20;;
5867;SDS011;2960;49.142;7.768;2023-03-01T04:16:18;8.97;;;2.40;;
5867;SDS011;2960;49.142;7.768;2023-03-01T04:18:46;7.00;;;2.07;;
5867;SDS011;2960;49.142;7.768;2023-03-01T04:21:13;8.77;;;2.93;;
5867;SDS011;2960;49.142;7.768;2023-03-01T04:23:42;7.83;;;2.53;;
5867;SDS011;2960;49.142;7.768;2023-03-01T04:26:09;8.20;;;2.30;;
5867;SDS011;2960;49.142;7.768;2023-03-01T04:28:36;9.00;;;2.80;;
5867;SDS011;2960;49.142;7.768;2023-03-01T04:31:09;8.80;;;2.50;;
5867;SDS011;2960;49.142;7.768;2023-03-01T04:33:41;8.77;;;2.70;;
5867;SDS011;2960;49.142;7.768;2023-03-01T04:36:11;8.30;;;2.20;;
5867;SDS011;2960;49.142;7.768;2023-03-01T04:38:42;9.00;;;2.53;;
5867;SDS011;2960;49.142;7.768;2023-03-01T04:41:13;8.77;;;2.63;;
5867;SDS011;2960;49.142;7.768;2023-03-01T04:43:41;8.40;;;2.27;;
5867;SDS011;2960;49.142;7.768;2023-03-01T04:46:09;8.50;;;2.50;;
5867;SDS011;2960;49.142;7.768;2023-03-01T04:48:39;8.80;;;2.40;;
5867;SDS011;2960;49.142;7.768;2023-03-01T04:51:08;8.67;;;2.40;;
5867;SDS011;2960;49.142;7.768;2023-03-01T04:53:38;8.47;;;2.40;;
5867;SDS011;2960;49.142;7.768;2023-03-01T04:56:07;10.33;;;2.93;;
5867;SDS011;2960;49.142;7.768;2023-03-01T04:58:35;8.17;;;2.63;;
5867;SDS011;2960;49.142;7.768;2023-03-01T05:01:07;8.10;;;2.47;;
5867;SDS011;2960;49.142;7.768;2023-03-01T05:03:40;13.43;;;2.90;;
5867;SDS011;2960;49.142;7.768;2023-03-01T05:06:08;8.70;;;2.83;;
5867;SDS011;2960;49.142;7.768;2023-03-01T05:08:36;9.03;;;3.00;;
5867;SDS011;2960;49.142;7.768;2023-03-01T05:11:04;9.83;;;2.70;;
5867;SDS011;2960;49.142;7.768;2023-03-01T05:13:35;8.27;;;2.60;;
5867;SDS011;2960;49.142;7.768;2023-03-01T05:16:05;9.40;;;3.10;;
5867;SDS011;2960;49.142;7.768;2023-03-01T05:18:36;11.50;;;3.20;;
5867;SDS011;2960;49.142;7.768;2023-03-01T05:21:05;11.23;;;3.00;;
5867;SDS011;2960;49.142;7.768;2023-03-01T05:23:34;12.80;;;3.27;;
5867;SDS011;2960;49.142;7.768;2023-03-01T05:26:02;9.33;;;3.07;;
5867;SDS011;2960;49.142;7.768;2023-03-01T05:28:31;12.43;;;3.47;;
5867;SDS011;2960;49.142;7.768;2023-03-01T05:31:00;11.20;;;3.33;;
5867;SDS011;2960;49.142;7.768;2023-03-01T05:33:27;11.67;;;3.63;;
5867;SDS011;2960;49.142;7.768;2023-03-01T05:35:59;10.80;;;3.53;;
5867;SDS011;2960;49.142;7.768;2023-03-01T05:38:26;12.20;;;3.70;;
5867;SDS011;2960;49.142;7.768;2023-03-01T05:40:53;10.90;;;3.27;;
5867;SDS011;2960;49.142;7.768;2023-03-01T05:43:21;11.57;;;3.90;;
5867;SDS011;2960;49.142;7.768;2023-03-01T05:45:48;11.97;;;3.63;;
5867;SDS011;2960;49.142;7.768;2023-03-01T05:48:16;13.70;;;3.83;;
5867;SDS011;2960;49.142;7.768;2023-03-01T05:50:44;12.77;;;4.30;;
5867;SDS011;2960;49.142;7.768;2023-03-01T05:53:13;11.37;;;3.60;;
5867;SDS011;2960;49.142;7.768;2023-03-01T05:55:42;12.33;;;4.20;;
5867;SDS011;2960;49.142;7.768;2023-03-01T05:58:13;11.93;;;3.60;;
5867;SDS011;2960;49.142;7.768;2023-03-01T06:00:42;10.10;;;3.63;;
5867;SDS011;2960;49.142;7.768;2023-03-01T06:03:10;11.50;;;3.40;;
5867;SDS011;2960;49.142;7.768;2023-03-01T06:05:41;9.57;;;3.30;;
5867;SDS011;2960;49.142;7.768;2023-03-01T06:08:09;9.70;;;3.30;;
5867;SDS011;2960;49.142;7.768;2023-03-01T06:10:37;11.07;;;3.67;;
5867;SDS011;2960;49.142;7.768;2023-03-01T06:13:05;10.10;;;3.87;;
5867;SDS011;2960;49.142;7.768;2023-03-01T06:15:32;9.53;;;3.27;;
5867;SDS011;2960;49.142;7.768;2023-03-01T06:18:00;10.53;;;3.60;;
5867;SDS011;2960;49.142;7.768;2023-03-01T06:20:28;11.30;;;4.00;;
5867;SDS011;2960;49.142;7.768;2023-03-01T06:22:57;9.70;;;3.63;;
5867;SDS011;2960;49.142;7.768;2023-03-01T06:25:25;9.10;;;3.27;;
5867;SDS011;2960;49.142;7.768;2023-03-01T06:27:53;9.80;;;3.70;;
5867;SDS011;2960;49.142;7.768;2023-03-01T06:30:21;10.27;;;3.30;;
5867;SDS011;2960;49.142;7.768;2023-03-01T06:32:51;10.67;;;3.53;;
5867;SDS011;2960;49.142;7.768;2023-03-01T06:35:25;10.00;;;3.30;;
5867;SDS011;2960;49.142;7.768;2023-03-01T06:37:55;11.30;;;3.60;;
5867;SDS011;2960;49.142;7.768;2023-03-01T06:40:25;11.83;;;4.07;;
5867;SDS011;2960;49.142;7.768;2023-03-01T06:42:53;10.73;;;3.43;;
5867;SDS011;2960;49.142;7.768;2023-03-01T06:45:20;9.73;;;3.60;;
5867;SDS011;2960;49.142;7.768;2023-03-01T06:47:47;15.80;;;4.37;;
5867;SDS011;2960;49.142;7.768;2023-03-01T06:50:15;10.93;;;3.70;;
5867;SDS011;2960;49.142;7.768;2023-03-01T06:52:46;10.80;;;3.53;;
5867;SDS011;2960;49.142;7.768;2023-03-01T06:55:17;12.60;;;4.33;;
5867;SDS011;2960;49.142;7.768;2023-03-01T06:57:44;10.00;;;3.40;;
5867;SDS011;2960;49.142;7.768;2023-03-01T07:00:12;10.33;;;3.43;;
5867;SDS011;2960;49.142;7.768;2023-03-01T07:02:40;9.63;;;3.30;;
5867;SDS011;2960;49.142;7.768;2023-03-01T07:05:08;11.83;;;4.33;;
5867;SDS011;2960;49.142;7.768;2023-03-01T07:07:35;9.30;;;3.00;;
5867;SDS011;2960;49.142;7.768;2023-03-01T07:10:02;11.30;;;3.80;;
5867;SDS011;2960;49.142;7.768;2023-03-01T07:12:32;10.70;;;3.70;;
5867;SDS011;2960;49.142;7.768;2023-03-01T07:14:59;11.33;;;3.70;;
5867;SDS011;2960;49.142;7.768;2023-03-01T07:17:26;10.37;;;3.13;;
5867;SDS011;2960;49.142;7.768;2023-03-01T07:19:53;10.33;;;3.33;;
5867;SDS011;2960;49.142;7.768;2023-03-01T07:22:20;10.13;;;3.03;;
5867;SDS011;2960;49.142;7.768;2023-03-01T07:24:48;9.90;;;3.50;;
5867;SDS011;2960;49.142;7.768;2023-03-01T07:27:15;10.93;;;3.20;;
5867;SDS011;2960;49.142;7.768;2023-03-01T07:29:43;10.00;;;3.33;;
5867;SDS011;2960;49.142;7.768;2023-03-01T07:32:10;10.57;;;3.43;;
5867;SDS011;2960;49.142;7.768;2023-03-01T07:34:37;10.50;;;3.27;;
5867;SDS011;2960;49.142;7.768;2023-03-01T07:37:05;8.87;;;3.10;;
5867;SDS011;2960;49.142;7.768;2023-03-01T07:39:32;8.70;;;2.80;;
5867;SDS011;2960;49.142;7.768;2023-03-01T07:41:59;8.37;;;2.60;;
5867;SDS011;2960;49.142;7.768;2023-03-01T07:44:26;10.10;;;2.93;;
5867;SDS011;2960;49.142;7.768;2023-03-01T07:46:55;10.73;;;3.53;;
5867;SDS011;2960;49.142;7.768;2023-03-01T07:49:23;11.80;;;3.40;;
5867;SDS011;2960;49.142;7.768;2023-03-01T07:51:51;9.63;;;3.70;;
5867;SDS011;2960;49.142;7.768;2023-03-01T07:54:18;8.83;;;3.00;;
5867;SDS011;2960;49.142;7.768;2023-03-01T07:56:45;11.70;;;3.67;;
5867;SDS011;2960;49.142;7.768;2023-03-01T07:59:12;10.77;;;4.00;;
5867;SDS011;2960;49.142;7.768;2023-03-01T08:01:39;12.00;;;3.87;;
5867;SDS011;2960;49.142;7.768;2023-03-01T08:04:09;12.77;;;4.47;;
5867;SDS011;2960;49.142;7.768;2023-03-01T08:06:36;12.40;;;4.70;;
5867;SDS011;2960;49.142;7.768;2023-03-01T08:09:04;11.63;;;4.23;;
5867;SDS011;2960;49.142;7.768;2023-03-01T08:11:32;12.03;;;4.70;;
5867;SDS011;2960;49.142;7.768;2023-03-01T08:14:00;11.90;;;4.67;;
5867;SDS011;2960;49.142;7.768;2023-03-01T08:16:27;11.33;;;4.50;;
5867;SDS011;2960;49.142;7.768;2023-03-01T08:18:54;14.07;;;4.97;;
5867;SDS011;2960;49.142;7.768;2023-03-01T08:21:23;12.03;;;5.33;;
5867;SDS011;2960;49.142;7.768;2023-03-01T08:23:50;13.00;;;5.17;;
5867;SDS011;2960;49.142;7.768;2023-03-01T08:26:17;12.43;;;5.23;;
5867;SDS011;2960;49.142;7.768;2023-03-01T08:28:47;16.40;;;5.73;;
5867;SDS011;2960;49.142;7.768;2023-03-01T08:31:17;15.00;;;5.93;;
5867;SDS011;2960;49.142;7.768;2023-03-01T08:33:47;14.17;;;5.67;;
5867;SDS011;2960;49.142;7.768;2023-03-01T08:36:20;14.30;;;6.13;;
5867;SDS011;2960;49.142;7.768;2023-03-01T08:38:50;14.57;;;5.97;;
5867;SDS011;2960;49.142;7.768;2023-03-01T08:41:18;13.40;;;5.80;;
5867;SDS011;2960;49.142;7.768;2023-03-01T08:43:48;15.70;;;5.40;;
5867;SDS011;2960;49.142;7.768;2023-03-01T08:46:15;14.63;;;6.00;;
5867;SDS011;2960;49.142;7.768;2023-03-01T08:48:42;13.57;;;5.90;;
5867;SDS011;2960;49.142;7.768;2023-03-01T08:51:10;12.63;;;5.77;;
5867;SDS011;2960;49.142;7.768;2023-03-01T08:53:41;13.70;;;6.20;;
5867;SDS011;2960;49.142;7.768;2023-03-01T08:56:08;13.43;;;5.80;;
5867;SDS011;2960;49.142;7.768;2023-03-01T08:58:36;15.80;;;6.10;;
5867;SDS011;2960;49.142;7.768;2023-03-01T09:01:09;14.37;;;6.43;;
5867;SDS011;2960;49.142;7.768;2023-03-01T09:03:37;16.90;;;7.13;;
5867;SDS011;2960;49.142;7.768;2023-03-01T09:06:05;15.17;;;6.83;;
5867;SDS011;2960;49.142;7.768;2023-03-01T09:08:34;16.67;;;7.20;;
5867;SDS011;2960;49.142;7.768;2023-03-01T09:11:04;15.07;;;6.50;;
5867;SDS011;2960;49.142;7.768;2023-03-01T09:13:33;14.47;;;6.80;;
5867;SDS011;2960;49.142;7.768;2023-03-01T09:16:01;16.10;;;6.93;;
5867;SDS011;2960;49.142;7.768;2023-03-01T09:18:30;14.23;;;6.83;;
5867;SDS011;2960;49.142;7.768;2023-03-01T09:21:01;15.13;;;6.90;;
5867;SDS011;2960;49.142;7.768;2023-03-01T09:23:33;15.40;;;6.70;;
5867;SDS011;2960;49.142;7.768;2023-03-01T09:26:01;15.60;;;6.97;;
5867;SDS011;2960;49.142;7.768;2023-03-01T09:28:30;15.60;;;6.20;;
5867;SDS011;2960;49.142;7.768;2023-03-01T09:30:58;13.30;;;6.20;;
5867;SDS011;2960;49.142;7.768;2023-03-01T09:33:25;15.63;;;6.43;;
5867;SDS011;2960;49.142;7.768;2023-03-01T09:35:55;18.50;;;7.57;;
5867;SDS011;2960;49.142;7.768;2023-03-01T09:38:23;16.40;;;6.60;;
5867;SDS011;2960;49.142;7.768;2023-03-01T09:40:50;17.13;;;7.10;;
5867;SDS011;2960;49.142;7.768;2023-03-01T09:43:20;14.67;;;6.50;;
5867;SDS011;2960;49.142;7.768;2023-03-01T09:45:54;15.37;;;6.70;;
5867;SDS011;2960;49.142;7.768;2023-03-01T09:48:26;15.93;;;6.93;;
5867;SDS011;2960;49.142;7.768;2023-03-01T09:51:12;15.83;;;6.50;;
5867;SDS011;2960;49.142;7.768;2023-03-01T09:53:44;18.20;;;7.67;;
5867;SDS011;2960;49.142;7.768;2023-03-01T09:56:12;18.30;;;7.27;;
5867;SDS011;2960;49.142;7.768;2023-03-01T09:58:50;16.30;;;6.50;;
5867;SDS011;2960;49.142;7.768;2023-03-01T10:04:26;17.17;;;7.10;;
5867;SDS011;2960;49.142;7.768;2023-03-01T10:07:05;16.37;;;7.50;;
5867;SDS011;2960;49.142;7.768;2023-03-01T10:09:47;24.33;;;8.70;;
5867;SDS011;2960;49.142;7.768;2023-03-01T10:12:15;16.40;;;7.60;;
5867;SDS011;2960;49.142;7.768;2023-03-01T10:14:48;18.00;;;7.87;;
5867;SDS011;2960;49.142;7.768;2023-03-01T10:17:24;17.33;;;7.67;;
5867;SDS011;2960;49.142;7.768;2023-03-01T10:19:59;17.17;;;7.70;;
5867;SDS011;2960;49.142;7.768;2023-03-01T10:22:45;18.67;;;8.33;;
5867;SDS011;2960;49.142;7.768;2023-03-01T10:25:15;16.57;;;7.87;;
5867;SDS011;2960;49.142;7.768;2023-03-01T10:27:59;23.03;;;8.57;;
5867;SDS011;2960;49.142;7.768;2023-03-01T10:30:32;17.60;;;8.43;;
5867;SDS011;2960;49.142;7.768;2023-03-01T10:33:05;18.73;;;9.00;;
5867;SDS011;2960;49.142;7.768;2023-03-01T10:35:43;18.33;;;9.07;;
5867;SDS011;2960;49.142;7.768;2023-03-01T10:38:14;18.10;;;8.83;;
5867;SDS011;2960;49.142;7.768;2023-03-01T10:40:52;17.43;;;8.57;;
5867;SDS011;2960;49.142;7.768;2023-03-01T10:43:22;18.70;;;8.57;;
5867;SDS011;2960;49.142;7.768;2023-03-01T10:45:51;18.70;;;7.70;;
5867;SDS011;2960;49.142;7.768;2023-03-01T10:48:19;17.63;;;8.67;;
5867;SDS011;2960;49.142;7.768;2023-03-01T10:50:51;20.33;;;9.27;;
5867;SDS011;2960;49.142;7.768;2023-03-01T10:53:33;16.50;;;8.80;;
5867;SDS011;2960;49.142;7.768;2023-03-01T10:56:03;17.33;;;8.67;;
5867;SDS011;2960;49.142;7.768;2023-03-01T10:58:33;18.63;;;8.20;;
5867;SDS011;2960;49.142;7.768;2023-03-01T11:01:03;16.47;;;9.07;;
5867;SDS011;2960;49.142;7.768;2023-03-01T11:03:33;20.13;;;9.17;;
5867;SDS011;2960;49.142;7.768;2023-03-01T11:06:04;19.33;;;8.23;;
5867;SDS011;2960;49.142;7.768;2023-03-01T11:08:39;16.77;;;7.83;;
5867;SDS011;2960;49.142;7.768;2023-03-01T11:11:14;16.10;;;8.20;;
5867;SDS011;2960;49.142;7.768;2023-03-01T11:13:59;17.57;;;7.90;;
5867;SDS011;2960;49.142;7.768;2023-03-01T11:16:34;15.30;;;7.40;;
5867;SDS011;2960;49.142;7.768;2023-03-01T11:19:13;16.33;;;8.13;;
5867;SDS011;2960;49.142;7.768;2023-03-01T11:21:52;17.23;;;8.30;;
5867;SDS011;2960;49.142;7.768;2023-03-01T11:24:27;17.27;;;8.57;;
5867;SDS011;2960;49.142;7.768;2023-03-01T11:27:14;17.20;;;7.70;;
5867;SDS011;2960;49.142;7.768;2023-03-01T11:29:48;16.47;;;8.00;;
5867;SDS011;2960;49.142;7.768;2023-03-01T11:32:22;16.00;;;8.03;;
5867;SDS011;2960;49.142;7.768;2023-03-01T11:34:54;18.03;;;9.50;;
5867;SDS011;2960;49.142;7.768;2023-03-01T11:37:32;16.40;;;8.30;;
5867;SDS011;2960;49.142;7.768;2023-03-01T11:40:05;15.23;;;7.70;;
5867;SDS011;2960;49.142;7.768;2023-03-01T11:42:48;16.13;;;7.57;;
5867;SDS011;2960;49.142;7.768;2023-03-01T11:45:24;14.70;;;7.43;;
5867;SDS011;2960;49.142;7.768;2023-03-01T11:48:17;16.70;;;8.43;;
5867;SDS011;2960;49.142;7.768;2023-03-01T11:51:13;15.33;;;7.30;;
5867;SDS011;2960;49.142;7.768;2023-03-01T11:53:51;16.20;;;8.27;;
5867;SDS011;2960;49.142;7.768;2023-03-01T11:56:38;15.10;;;7.63;;
5867;SDS011;2960;49.142;7.768;2023-03-01T11:59:15;17.23;;;8.93;;
5867;SDS011;2960;49.142;7.768;2023-03-01T12:02:09;15.83;;;7.03;;
5867;SDS011;2960;49.142;7.768;2023-03-01T12:05:11;15.27;;;7.50;;
5867;SDS011;2960;49.142;7.768;2023-03-01T12:07:53;17.10;;;7.67;;
5867;SDS011;2960;49.142;7.768;2023-03-01T12:10:28;15.60;;;7.80;;
5867;SDS011;2960;49.142;7.768;2023-03-01T12:13:08;17.23;;;8.73;;
5867;SDS011;2960;49.142;7.768;2023-03-01T12:16:02;17.53;;;8.63;;
5867;SDS011;2960;49.142;7.768;2023-03-01T12:18:59;16.93;;;7.90;;
5867;SDS011;2960;49.142;7.768;2023-03-01T12:21:58;16.97;;;8.40;;
5867;SDS011;2960;49.142;7.768;2023-03-01T12:24:47;20.53;;;9.20;;
5867;SDS011;2960;49.142;7.768;2023-03-01T12:31:17;17.40;;;8.67;;
5867;SDS011;2960;49.142;7.768;2023-03-01T12:34:14;17.93;;;7.77;;
5867;SDS011;2960;49.142;7.768;2023-03-01T12:37:17;17.20;;;8.10;;
5867;SDS011;2960;49.142;7.768;2023-03-01T12:39:56;16.13;;;7.40;;
5867;SDS011;2960;49.142;7.768;2023-03-01T12:42:47;16.00;;;7.80;;
5867;SDS011;2960;49.142;7.768;2023-03-01T12:45:31;17.60;;;7.63;;
5867;SDS011;2960;49.142;7.768;2023-03-01T12:48:14;17.33;;;7.53;;
5867;SDS011;2960;49.142;7.768;2023-03-01T12:50:54;14.97;;;7.73;;
5867;SDS011;2960;49.142;7.768;2023-03-01T12:53:28;17.07;;;7.30;;
5867;SDS011;2960;49.142;7.768;2023-03-01T12:55:59;16.90;;;7.13;;
5867;SDS011;2960;49.142;7.768;2023-03-01T12:58:33;15.47;;;7.50;;
5867;SDS011;2960;49.142;7.768;2023-03-01T13:01:14;15.13;;;7.17;;
5867;SDS011;2960;49.142;7.768;2023-03-01T13:03:56;16.90;;;7.10;;
5867;SDS011;2960;49.142;7.768;2023-03-01T13:06:44;18.40;;;8.37;;
5867;SDS011;2960;49.142;7.768;2023-03-01T13:09:31;14.80;;;7.10;;
5867;SDS011;2960;49.142;7.768;2023-03-01T13:15:24;17.07;;;8.17;;
5867;SDS011;2960;49.142;7.768;2023-03-01T13:17:58;15.83;;;6.60;;
5867;SDS011;2960;49.142;7.768;2023-03-01T13:20:30;16.30;;;7.00;;
5867;SDS011;2960;49.142;7.768;2023-03-01T13:23:03;15.30;;;7.20;;
5867;SDS011;2960;49.142;7.768;2023-03-01T13:25:35;14.83;;;6.63;;
5867;SDS011;2960;49.142;7.768;2023-03-01T13:28:50;14.53;;;7.00;;
5867;SDS011;2960;49.142;7.768;2023-03-01T13:34:45;14.77;;;6.90;;
5867;SDS011;2960;49.142;7.768;2023-03-01T13:37:33;14.40;;;6.40;;
5867;SDS011;2960;49.142;7.768;2023-03-01T13:40:04;15.60;;;6.63;;
5867;SDS011;2960;49.142;7.768;2023-03-01T13:43:27;15.53;;;7.40;;
5867;SDS011;2960;49.142;7.768;2023-03-01T13:45:59;14.40;;;7.00;;
5867;SDS011;2960;49.142;7.768;2023-03-01T13:48:29;14.83;;;6.50;;
5867;SDS011;2960;49.142;7.768;2023-03-01T13:50:58;16.10;;;7.17;;
5867;SDS011;2960;49.142;7.768;2023-03-01T13:53:29;15.97;;;7.20;;
5867;SDS011;2960;49.142;7.768;2023-03-01T13:56:00;14.00;;;6.50;;
5867;SDS011;2960;49.142;7.768;2023-03-01T13:58:43;14.23;;;6.63;;
5867;SDS011;2960;49.142;7.768;2023-03-01T14:01:20;17.43;;;6.57;;
5867;SDS011;2960;49.142;7.768;2023-03-01T14:03:51;14.70;;;6.37;;
5867;SDS011;2960;49.142;7.768;2023-03-01T14:06:20;14.87;;;6.57;;
5867;SDS011;2960;49.142;7.768;2023-03-01T14:08:51;13.40;;;6.33;;
5867;SDS011;2960;49.142;7.768;2023-03-01T14:11:40;14.33;;;6.87;;
5867;SDS011;2960;49.142;7.768;2023-03-01T14:14:47;14.83;;;6.77;;
5867;SDS011;2960;49.142;7.768;2023-03-01T14:17:25;16.13;;;7.20;;
5867;SDS011;2960;49.142;7.768;2023-03-01T14:20:09;21.03;;;6.17;;
5867;SDS011;2960;49.142;7.768;2023-03-01T14:22:43;14.53;;;6.70;;
5867;SDS011;2960;49.142;7.768;2023-03-01T14:25:20;14.70;;;6.90;;
5867;SDS011;2960;49.142;7.768;2023-03-01T14:27:56;13.60;;;6.97;;
5867;SDS011;2960;49.142;7.768;2023-03-01T14:30:30;19.37;;;7.93;;
5867;SDS011;2960;49.142;7.768;2023-03-01T14:33:04;15.53;;;7.70;;
5867;SDS011;2960;49.142;7.768;2023-03-01T14:35:51;15.40;;;7.03;;
5867;SDS011;2960;49.142;7.768;2023-03-01T14:38:20;15.70;;;7.20;;
5867;SDS011;2960;49.142;7.768;2023-03-01T14:40:48;14.43;;;6.20;;
5867;SDS011;2960;49.142;7.768;2023-03-01T14:43:22;15.50;;;7.20;;
5867;SDS011;2960;49.142;7.768;2023-03-01T14:45:52;16.50;;;7.00;;
5867;SDS011;2960;49.142;7.768;2023-03-01T14:48:19;14.10;;;6.23;;
5867;SDS011;2960;49.142;7.768;2023-03-01T14:50:47;14.40;;;6.47;;
5867;SDS011;2960;49.142;7.768;2023-03-01T14:53:16;14.90;;;6.73;;
5867;SDS011;2960;49.142;7.768;2023-03-01T14:55:46;14.50;;;6.10;;
5867;SDS011;2960;49.142;7.768;2023-03-01T14:58:18;16.90;;;6.40;;
5867;SDS011;2960;49.142;7.768;2023-03-01T15:00:49;16.90;;;6.87;;
5867;SDS011;2960;49.142;7.768;2023-03-01T15:03:23;14.60;;;6.67;;
5867;SDS011;2960;49.142;7.768;2023-03-01T15:05:54;17.13;;;6.43;;
5867;SDS011;2960;49.142;7.768;2023-03-01T15:08:24;15.07;;;6.47;;
5867;SDS011;2960;49.142;7.768;2023-03-01T15:11:00;16.80;;;7.73;;
5867;SDS011;2960;49.142;7.768;2023-03-01T15:13:31;16.17;;;7.27;;
5867;SDS011;2960;49.142;7.768;2023-03-01T15:16:05;16.23;;;7.40;;
5867;SDS011;2960;49.142;7.768;2023-03-01T15:18:35;15.07;;;6.63;;
5867;SDS011;2960;49.142;7.768;2023-03-01T15:21:15;16.97;;;7.47;;
5867;SDS011;2960;49.142;7.768;2023-03-01T15:23:47;15.13;;;6.93;;
5867;SDS011;2960;49.142;7.768;2023-03-01T15:26:24;19.23;;;6.17;;
5867;SDS011;2960;49.142;7.768;2023-03-01T15:28:55;13.57;;;6.60;;
5867;SDS011;2960;49.142;7.768;2023-03-01T15:31:27;16.40;;;6.63;;
5867;SDS011;2960;49.142;7.768;2023-03-01T15:34:10;14.40;;;6.70;;
5867;SDS011;2960;49.142;7.768;2023-03-01T15:36:49;13.10;;;5.80;;
5867;SDS011;2960;49.142;7.768;2023-03-01T15:39:26;14.07;;;6.20;;
5867;SDS011;2960;49.142;7.768;2023-03-01T15:42:02;13.63;;;5.80;;
5867;SDS011;2960;49.142;7.768;2023-03-01T15:44:36;17.07;;;6.80;;
5867;SDS011;2960;49.142;7.768;2023-03-01T15:47:21;14.60;;;6.57;;
5867;SDS011;2960;49.142;7.768;2023-03-01T15:49:54;14.10;;;5.93;;
5867;SDS011;2960;49.142;7.768;2023-03-01T15:52:22;14.67;;;6.40;;